sensor_id;sensor_type;location;lat;lon;timestamp;P1;durP1;ratioP1;P2;durP2;ratioP2
29478;SDS011;16437;41.836;23.480;2022-11-20T00:01:24;4.55;;;2.20;;
29478;SDS011;16437;41.836;23.480;2022-11-20T00:06:46;4.47;;;2.10;;
29478;SDS011;16437;41.836;23.480;2022-11-20T00:12:13;5.25;;;2.05;;
29478;SDS011;16437;41.836;23.480;2022-11-20T00:17:39;4.33;;;2.33;;
29478;SDS011;16437;41.836;23.480;2022-11-20T00:23:05;3.22;;;1.87;;
29478;SDS011;16437;41.836;23.480;2022-11-20T00:28:32;5.65;;;2.10;;
29478;SDS011;16437;41.836;23.480;2022-11-20T00:33:58;6.03;;;2.10;;
29478;SDS011;16437;41.836;23.480;2022-11-20T00:39:25;4.55;;;1.75;;
29478;SDS011;16437;41.836;23.480;2022-11-20T00:44:51;6.40;;;2.33;;
29478;SDS011;16437;41.836;23.480;2022-11-20T00:50:17;5.75;;;2.12;;
29478;SDS011;16437;41.836;23.480;2022-11-20T00:55:52;6.85;;;2.15;;
29478;SDS011;16437;41.836;23.480;2022-11-20T01:01:20;4.28;;;1.98;;
29478;SDS011;16437;41.836;23.480;2022-11-20T01:06:49;4.33;;;1.90;;
29478;SDS011;16437;41.836;23.480;2022-11-20T01:12:16;6.65;;;1.85;;
29478;SDS011;16437;41.836;23.480;2022-11-20T01:17:42;4.45;;;1.85;;
29478;SDS011;16437;41.836;23.480;2022-11-20T01:23:08;4.35;;;1.90;;
29478;SDS011;16437;41.836;23.480;2022-11-20T01:28:35;4.50;;;1.80;;
29478;SDS011;16437;41.836;23.480;2022-11-20T01:34:03;4.53;;;2.17;;
29478;SDS011;16437;41.836;23.480;2022-11-20T01:39:31;4.45;;;2.15;;
29478;SDS011;16437;41.836;23.480;2022-11-20T01:44:59;6.28;;;1.87;;
29478;SDS011;16437;41.836;23.480;2022-11-20T01:50:26;3.87;;;1.52;;
29478;SDS011;16437;41.836;23.480;2022-11-20T01:55:55;3.80;;;1.50;;
29478;SDS011;16437;41.836;23.480;2022-11-20T02:01:23;5.42;;;1.55;;
29478;SDS011;16437;41.836;23.480;2022-11-20T02:06:51;5.25;;;1.50;;
29478;SDS011;16437;41.836;23.480;2022-11-20T02:12:21;4.78;;;1.60;;
29478;SDS011;16437;41.836;23.480;2022-11-20T02:17:49;3.12;;;1.50;;
29478;SDS011;16437;41.836;23.480;2022-11-20T02:23:28;3.52;;;1.42;;
29478;SDS011;16437;41.836;23.480;2022-11-20T02:29:06;4.35;;;1.50;;
29478;SDS011;16437;41.836;23.480;2022-11-20T02:34:32;2.40;;;1.27;;
29478;SDS011;16437;41.836;23.480;2022-11-20T02:39:59;2.42;;;1.12;;
29478;SDS011;16437;41.836;23.480;2022-11-20T02:45:25;2.75;;;1.47;;
29478;SDS011;16437;41.836;23.480;2022-11-20T02:50:52;1.92;;;1.10;;
29478;SDS011;16437;41.836;23.480;2022-11-20T02:56:18;3.60;;;1.45;;
29478;SDS011;16437;41.836;23.480;2022-11-20T03:01:45;2.25;;;1.00;;
29478;SDS011;16437;41.836;23.480;2022-11-20T03:07:12;3.27;;;1.30;;
29478;SDS011;16437;41.836;23.480;2022-11-20T03:12:38;2.25;;;1.10;;
29478;SDS011;16437;41.836;23.480;2022-11-20T03:18:04;2.62;;;1.22;;
29478;SDS011;16437;41.836;23.480;2022-11-20T03:23:31;2.47;;;1.40;;
29478;SDS011;16437;41.836;23.480;2022-11-20T03:28:58;3.17;;;1.40;;
29478;SDS011;16437;41.836;23.480;2022-11-20T03:34:26;4.78;;;1.47;;
29478;SDS011;16437;41.836;23.480;2022-11-20T03:39:53;3.40;;;1.20;;
29478;SDS011;16437;41.836;23.480;2022-11-20T03:45:19;2.55;;;1.30;;
29478;SDS011;16437;41.836;23.480;2022-11-20T03:50:46;5.20;;;1.50;;
29478;SDS011;16437;41.836;23.480;2022-11-20T03:56:13;4.58;;;1.60;;
29478;SDS011;16437;41.836;23.480;2022-11-20T04:01:41;5.15;;;1.40;;
29478;SDS011;16437;41.836;23.480;2022-11-20T04:07:07;8.73;;;1.70;;
29478;SDS011;16437;41.836;23.480;2022-11-20T04:12:34;4.42;;;1.50;;
29478;SDS011;16437;41.836;23.480;2022-11-20T04:18:00;3.90;;;1.70;;
29478;SDS011;16437;41.836;23.480;2022-11-20T04:23:26;4.40;;;1.77;;
29478;SDS011;16437;41.836;23.480;2022-11-20T04:28:53;5.22;;;1.42;;
29478;SDS011;16437;41.836;23.480;2022-11-20T04:34:20;5.72;;;1.82;;
29478;SDS011;16437;41.836;23.480;2022-11-20T04:39:46;4.17;;;1.67;;
29478;SDS011;16437;41.836;23.480;2022-11-20T04:45:13;4.72;;;1.60;;
29478;SDS011;16437;41.836;23.480;2022-11-20T04:50:40;4.20;;;1.62;;
29478;SDS011;16437;41.836;23.480;2022-11-20T04:56:08;4.92;;;1.90;;
29478;SDS011;16437;41.836;23.480;2022-11-20T05:01:36;4.12;;;1.65;;
29478;SDS011;16437;41.836;23.480;2022-11-20T05:07:03;4.20;;;1.70;;
29478;SDS011;16437;41.836;23.480;2022-11-20T05:12:29;4.33;;;2.10;;
29478;SDS011;16437;41.836;23.480;2022-11-20T05:17:56;5.92;;;1.98;;
29478;SDS011;16437;41.836;23.480;2022-11-20T05:23:23;8.20;;;2.37;;
29478;SDS011;16437;41.836;23.480;2022-11-20T05:28:50;5.03;;;2.40;;
29478;SDS011;16437;41.836;23.480;2022-11-20T05:34:17;5.55;;;2.08;;
29478;SDS011;16437;41.836;23.480;2022-11-20T05:39:44;3.50;;;1.90;;
29478;SDS011;16437;41.836;23.480;2022-11-20T05:45:10;5.78;;;2.40;;
29478;SDS011;16437;41.836;23.480;2022-11-20T05:50:37;4.08;;;2.27;;
29478;SDS011;16437;41.836;23.480;2022-11-20T05:56:04;4.97;;;2.10;;
29478;SDS011;16437;41.836;23.480;2022-11-20T06:01:33;4.60;;;1.90;;
29478;SDS011;16437;41.836;23.480;2022-11-20T06:07:00;6.17;;;2.33;;
29478;SDS011;16437;41.836;23.480;2022-11-20T06:12:27;4.22;;;2.25;;
29478;SDS011;16437;41.836;23.480;2022-11-20T06:17:53;4.12;;;2.30;;
29478;SDS011;16437;41.836;23.480;2022-11-20T06:23:20;3.95;;;2.47;;
29478;SDS011;16437;41.836;23.480;2022-11-20T06:28:47;8.43;;;2.52;;
29478;SDS011;16437;41.836;23.480;2022-11-20T06:34:14;6.42;;;2.92;;
29478;SDS011;16437;41.836;23.480;2022-11-20T06:39:41;5.95;;;3.22;;
29478;SDS011;16437;41.836;23.480;2022-11-20T06:45:08;5.87;;;2.75;;
29478;SDS011;16437;41.836;23.480;2022-11-20T06:50:40;6.85;;;3.02;;
29478;SDS011;16437;41.836;23.480;2022-11-20T06:56:02;6.72;;;3.33;;
29478;SDS011;16437;41.836;23.480;2022-11-20T07:01:29;6.75;;;3.35;;
29478;SDS011;16437;41.836;23.480;2022-11-20T07:06:55;6.67;;;3.35;;
29478;SDS011;16437;41.836;23.480;2022-11-20T07:12:22;8.25;;;3.42;;
29478;SDS011;16437;41.836;23.480;2022-11-20T07:17:48;7.45;;;3.20;;
29478;SDS011;16437;41.836;23.480;2022-11-20T07:23:14;8.18;;;2.95;;
29478;SDS011;16437;41.836;23.480;2022-11-20T07:28:43;7.53;;;3.58;;
29478;SDS011;16437;41.836;23.480;2022-11-20T07:34:09;9.08;;;3.40;;
29478;SDS011;16437;41.836;23.480;2022-11-20T07:39:36;6.80;;;2.95;;
29478;SDS011;16437;41.836;23.480;2022-11-20T07:45:02;8.53;;;3.35;;
29478;SDS011;16437;41.836;23.480;2022-11-20T07:50:29;9.80;;;3.15;;
29478;SDS011;16437;41.836;23.480;2022-11-20T07:55:59;8.65;;;3.10;;
29478;SDS011;16437;41.836;23.480;2022-11-20T08:01:27;10.10;;;3.50;;
29478;SDS011;16437;41.836;23.480;2022-11-20T08:06:54;8.63;;;3.05;;
29478;SDS011;16437;41.836;23.480;2022-11-20T08:12:21;7.17;;;2.98;;
29478;SDS011;16437;41.836;23.480;2022-11-20T08:18:11;10.50;;;3.70;;
29478;SDS011;16437;41.836;23.480;2022-11-20T08:23:36;8.80;;;3.10;;
29478;SDS011;16437;41.836;23.480;2022-11-20T08:29:02;13.03;;;3.85;;
29478;SDS011;16437;41.836;23.480;2022-11-20T08:34:29;10.23;;;4.08;;
29478;SDS011;16437;41.836;23.480;2022-11-20T08:39:55;9.13;;;3.25;;
29478;SDS011;16437;41.836;23.480;2022-11-20T08:45:22;11.73;;;3.60;;
29478;SDS011;16437;41.836;23.480;2022-11-20T08:50:49;13.83;;;4.42;;
29478;SDS011;16437;41.836;23.480;2022-11-20T08:56:15;11.95;;;4.30;;
29478;SDS011;16437;41.836;23.480;2022-11-20T09:01:42;11.00;;;5.08;;
29478;SDS011;16437;41.836;23.480;2022-11-20T09:07:08;15.20;;;5.55;;
29478;SDS011;16437;41.836;23.480;2022-11-20T09:12:35;11.83;;;5.55;;
29478;SDS011;16437;41.836;23.480;2022-11-20T09:18:02;12.35;;;6.10;;
29478;SDS011;16437;41.836;23.480;2022-11-20T09:23:33;14.40;;;6.30;;
29478;SDS011;16437;41.836;23.480;2022-11-20T09:29:00;12.05;;;5.40;;
29478;SDS011;16437;41.836;23.480;2022-11-20T09:34:26;15.20;;;6.22;;
29478;SDS011;16437;41.836;23.480;2022-11-20T09:39:53;12.00;;;5.17;;
29478;SDS011;16437;41.836;23.480;2022-11-20T09:45:24;19.52;;;5.70;;
29478;SDS011;16437;41.836;23.480;2022-11-20T09:50:57;13.00;;;5.62;;
29478;SDS011;16437;41.836;23.480;2022-11-20T09:56:31;15.40;;;5.67;;
29478;SDS011;16437;41.836;23.480;2022-11-20T10:02:00;14.03;;;5.58;;
29478;SDS011;16437;41.836;23.480;2022-11-20T10:19:13;12.40;;;5.70;;
29478;SDS011;16437;41.836;23.480;2022-11-20T10:24:48;11.97;;;5.85;;
29478;SDS011;16437;41.836;23.480;2022-11-20T10:30:17;12.55;;;5.45;;
29478;SDS011;16437;41.836;23.480;2022-11-20T10:35:48;11.33;;;5.37;;
29478;SDS011;16437;41.836;23.480;2022-11-20T10:41:13;13.28;;;5.28;;
29478;SDS011;16437;41.836;23.480;2022-11-20T10:46:51;17.12;;;6.70;;
29478;SDS011;16437;41.836;23.480;2022-11-20T11:03:31;14.00;;;5.37;;
29478;SDS011;16437;41.836;23.480;2022-11-20T11:09:00;14.93;;;6.40;;
29478;SDS011;16437;41.836;23.480;2022-11-20T11:14:32;16.32;;;5.90;;
29478;SDS011;16437;41.836;23.480;2022-11-20T11:20:23;12.82;;;5.05;;
29478;SDS011;16437;41.836;23.480;2022-11-20T11:25:56;11.53;;;5.80;;
29478;SDS011;16437;41.836;23.480;2022-11-20T11:31:27;15.98;;;5.55;;
29478;SDS011;16437;41.836;23.480;2022-11-20T11:36:59;19.80;;;6.15;;
29478;SDS011;16437;41.836;23.480;2022-11-20T11:42:28;15.00;;;6.37;;
29478;SDS011;16437;41.836;23.480;2022-11-20T11:47:56;18.05;;;6.22;;
29478;SDS011;16437;41.836;23.480;2022-11-20T11:53:25;13.50;;;6.25;;
29478;SDS011;16437;41.836;23.480;2022-11-20T11:58:54;14.25;;;6.05;;
29478;SDS011;16437;41.836;23.480;2022-11-20T12:10:03;23.35;;;8.18;;
29478;SDS011;16437;41.836;23.480;2022-11-20T12:15:32;19.02;;;7.92;;
29478;SDS011;16437;41.836;23.480;2022-11-20T12:21:02;17.02;;;8.00;;
29478;SDS011;16437;41.836;23.480;2022-11-20T12:44:43;16.60;;;8.70;;
29478;SDS011;16437;41.836;23.480;2022-11-20T13:01:52;17.52;;;7.90;;
29478;SDS011;16437;41.836;23.480;2022-11-20T13:12:53;18.05;;;7.42;;
29478;SDS011;16437;41.836;23.480;2022-11-20T13:18:22;17.17;;;7.40;;
29478;SDS011;16437;41.836;23.480;2022-11-20T13:23:49;18.77;;;8.05;;
29478;SDS011;16437;41.836;23.480;2022-11-20T13:29:18;15.83;;;8.03;;
29478;SDS011;16437;41.836;23.480;2022-11-20T13:34:52;15.43;;;7.90;;
29478;SDS011;16437;41.836;23.480;2022-11-20T13:40:23;19.07;;;8.68;;
29478;SDS011;16437;41.836;23.480;2022-11-20T13:45:59;16.25;;;8.78;;
29478;SDS011;16437;41.836;23.480;2022-11-20T13:57:27;16.17;;;9.15;;
29478;SDS011;16437;41.836;23.480;2022-11-20T14:03:01;22.82;;;10.75;;
29478;SDS011;16437;41.836;23.480;2022-11-20T14:08:37;17.52;;;8.58;;
29478;SDS011;16437;41.836;23.480;2022-11-20T14:19:40;15.48;;;8.13;;
29478;SDS011;16437;41.836;23.480;2022-11-20T14:30:44;18.17;;;8.25;;
29478;SDS011;16437;41.836;23.480;2022-11-20T14:36:22;15.75;;;8.00;;
29478;SDS011;16437;41.836;23.480;2022-11-20T14:41:52;14.03;;;7.97;;
29478;SDS011;16437;41.836;23.480;2022-11-20T14:47:20;14.20;;;7.90;;
29478;SDS011;16437;41.836;23.480;2022-11-20T14:52:51;14.33;;;8.35;;
29478;SDS011;16437;41.836;23.480;2022-11-20T14:58:23;17.57;;;9.50;;
29478;SDS011;16437;41.836;23.480;2022-11-20T15:04:02;18.27;;;8.83;;
29478;SDS011;16437;41.836;23.480;2022-11-20T15:09:33;17.55;;;8.90;;
29478;SDS011;16437;41.836;23.480;2022-11-20T15:15:00;15.58;;;8.63;;
29478;SDS011;16437;41.836;23.480;2022-11-20T15:20:30;16.15;;;8.93;;
29478;SDS011;16437;41.836;23.480;2022-11-20T15:25:58;17.37;;;8.88;;
29478;SDS011;16437;41.836;23.480;2022-11-20T15:31:24;16.17;;;8.85;;
29478;SDS011;16437;41.836;23.480;2022-11-20T15:36:51;16.12;;;8.48;;
29478;SDS011;16437;41.836;23.480;2022-11-20T15:42:17;16.42;;;8.65;;
29478;SDS011;16437;41.836;23.480;2022-11-20T15:47:43;17.15;;;8.30;;
29478;SDS011;16437;41.836;23.480;2022-11-20T15:53:10;16.07;;;8.15;;
29478;SDS011;16437;41.836;23.480;2022-11-20T15:58:36;15.23;;;8.00;;
29478;SDS011;16437;41.836;23.480;2022-11-20T16:04:04;16.73;;;7.87;;
29478;SDS011;16437;41.836;23.480;2022-11-20T16:09:31;12.40;;;7.85;;
29478;SDS011;16437;41.836;23.480;2022-11-20T16:14:57;13.55;;;7.30;;
29478;SDS011;16437;41.836;23.480;2022-11-20T16:20:42;12.35;;;7.45;;
29478;SDS011;16437;41.836;23.480;2022-11-20T16:26:14;12.13;;;7.58;;
29478;SDS011;16437;41.836;23.480;2022-11-20T16:31:45;13.43;;;7.42;;
29478;SDS011;16437;41.836;23.480;2022-11-20T16:37:11;14.93;;;7.10;;
29478;SDS011;16437;41.836;23.480;2022-11-20T16:42:38;10.98;;;7.33;;
29478;SDS011;16437;41.836;23.480;2022-11-20T16:48:04;13.48;;;7.55;;
29478;SDS011;16437;41.836;23.480;2022-11-20T16:53:30;12.68;;;7.35;;
29478;SDS011;16437;41.836;23.480;2022-11-20T16:58:59;14.25;;;7.95;;
29478;SDS011;16437;41.836;23.480;2022-11-20T17:04:26;11.45;;;6.83;;
29478;SDS011;16437;41.836;23.480;2022-11-20T17:09:53;12.13;;;6.75;;
29478;SDS011;16437;41.836;23.480;2022-11-20T17:15:19;13.45;;;7.10;;
29478;SDS011;16437;41.836;23.480;2022-11-20T17:20:50;21.02;;;10.75;;
29478;SDS011;16437;41.836;23.480;2022-11-20T17:26:22;16.42;;;8.83;;
29478;SDS011;16437;41.836;23.480;2022-11-20T17:31:46;15.68;;;8.53;;
29478;SDS011;16437;41.836;23.480;2022-11-20T17:37:12;16.90;;;8.53;;
29478;SDS011;16437;41.836;23.480;2022-11-20T17:42:39;13.08;;;7.47;;
29478;SDS011;16437;41.836;23.480;2022-11-20T17:48:05;19.60;;;9.23;;
29478;SDS011;16437;41.836;23.480;2022-11-20T17:53:32;19.80;;;10.68;;
29478;SDS011;16437;41.836;23.480;2022-11-20T17:59:04;16.00;;;8.85;;
29478;SDS011;16437;41.836;23.480;2022-11-20T18:04:35;13.95;;;8.30;;
29478;SDS011;16437;41.836;23.480;2022-11-20T18:10:02;17.45;;;9.33;;
29478;SDS011;16437;41.836;23.480;2022-11-20T18:15:29;18.62;;;9.55;;
29478;SDS011;16437;41.836;23.480;2022-11-20T18:20:55;18.48;;;9.83;;
29478;SDS011;16437;41.836;23.480;2022-11-20T18:26:22;17.95;;;9.85;;
29478;SDS011;16437;41.836;23.480;2022-11-20T18:31:50;20.25;;;10.58;;
29478;SDS011;16437;41.836;23.480;2022-11-20T18:37:16;19.37;;;11.10;;
29478;SDS011;16437;41.836;23.480;2022-11-20T18:42:43;18.30;;;10.43;;
29478;SDS011;16437;41.836;23.480;2022-11-20T18:48:30;19.57;;;11.95;;
29478;SDS011;16437;41.836;23.480;2022-11-20T18:53:57;16.80;;;10.05;;
29478;SDS011;16437;41.836;23.480;2022-11-20T18:59:23;21.00;;;11.25;;
29478;SDS011;16437;41.836;23.480;2022-11-20T19:04:49;17.55;;;10.13;;
29478;SDS011;16437;41.836;23.480;2022-11-20T19:10:21;18.55;;;10.15;;
29478;SDS011;16437;41.836;23.480;2022-11-20T19:15:44;15.45;;;9.35;;
29478;SDS011;16437;41.836;23.480;2022-11-20T19:21:11;16.57;;;10.53;;
29478;SDS011;16437;41.836;23.480;2022-11-20T19:26:40;16.02;;;9.60;;
29478;SDS011;16437;41.836;23.480;2022-11-20T19:32:07;18.23;;;10.23;;
29478;SDS011;16437;41.836;23.480;2022-11-20T19:37:33;18.32;;;9.88;;
29478;SDS011;16437;41.836;23.480;2022-11-20T19:43:00;18.75;;;10.55;;
29478;SDS011;16437;41.836;23.480;2022-11-20T19:48:29;16.80;;;10.10;;
29478;SDS011;16437;41.836;23.480;2022-11-20T19:53:56;15.32;;;9.93;;
29478;SDS011;16437;41.836;23.480;2022-11-20T19:59:24;17.90;;;10.13;;
29478;SDS011;16437;41.836;23.480;2022-11-20T20:04:50;16.05;;;9.98;;
29478;SDS011;16437;41.836;23.480;2022-11-20T20:10:17;16.07;;;9.53;;
29478;SDS011;16437;41.836;23.480;2022-11-20T20:15:43;15.13;;;8.70;;
29478;SDS011;16437;41.836;23.480;2022-11-20T20:21:11;14.83;;;9.05;;
29478;SDS011;16437;41.836;23.480;2022-11-20T20:26:39;14.73;;;9.55;;
29478;SDS011;16437;41.836;23.480;2022-11-20T20:32:05;14.28;;;9.00;;
29478;SDS011;16437;41.836;23.480;2022-11-20T20:37:32;15.78;;;9.13;;
29478;SDS011;16437;41.836;23.480;2022-11-20T20:42:58;15.88;;;8.73;;
29478;SDS011;16437;41.836;23.480;2022-11-20T20:48:25;14.55;;;8.63;;
29478;SDS011;16437;41.836;23.480;2022-11-20T20:53:51;14.23;;;8.48;;
29478;SDS011;16437;41.836;23.480;2022-11-20T20:59:18;15.18;;;8.68;;
29478;SDS011;16437;41.836;23.480;2022-11-20T21:04:45;14.00;;;8.25;;
29478;SDS011;16437;41.836;23.480;2022-11-20T21:10:12;14.15;;;8.40;;
29478;SDS011;16437;41.836;23.480;2022-11-20T21:15:38;14.93;;;8.53;;
29478;SDS011;16437;41.836;23.480;2022-11-20T21:21:06;14.85;;;8.90;;
29478;SDS011;16437;41.836;23.480;2022-11-20T21:26:51;14.90;;;8.00;;
29478;SDS011;16437;41.836;23.480;2022-11-20T21:32:18;13.38;;;7.97;;
29478;SDS011;16437;41.836;23.480;2022-11-20T21:37:45;15.23;;;8.10;;
29478;SDS011;16437;41.836;23.480;2022-11-20T21:43:11;11.85;;;7.60;;
29478;SDS011;16437;41.836;23.480;2022-11-20T21:48:37;17.25;;;9.23;;
29478;SDS011;16437;41.836;23.480;2022-11-20T21:54:05;14.63;;;8.50;;
29478;SDS011;16437;41.836;23.480;2022-11-20T21:59:32;12.58;;;7.87;;
29478;SDS011;16437;41.836;23.480;2022-11-20T22:04:58;15.72;;;8.35;;
29478;SDS011;16437;41.836;23.480;2022-11-20T22:10:24;12.23;;;7.78;;
29478;SDS011;16437;41.836;23.480;2022-11-20T22:15:51;8.80;;;6.17;;
29478;SDS011;16437;41.836;23.480;2022-11-20T22:21:19;11.83;;;6.55;;
29478;SDS011;16437;41.836;23.480;2022-11-20T22:26:47;11.03;;;6.10;;
29478;SDS011;16437;41.836;23.480;2022-11-20T22:32:14;9.68;;;4.95;;
29478;SDS011;16437;41.836;23.480;2022-11-20T22:37:40;8.40;;;4.70;;
29478;SDS011;16437;41.836;23.480;2022-11-20T22:43:07;8.38;;;4.95;;
29478;SDS011;16437;41.836;23.480;2022-11-20T22:48:33;8.43;;;5.15;;
29478;SDS011;16437;41.836;23.480;2022-11-20T22:54:01;9.63;;;5.25;;
29478;SDS011;16437;41.836;23.480;2022-11-20T22:59:27;7.25;;;4.58;;
29478;SDS011;16437;41.836;23.480;2022-11-20T23:04:54;6.45;;;4.25;;
29478;SDS011;16437;41.836;23.480;2022-11-20T23:10:20;7.45;;;3.92;;
29478;SDS011;16437;41.836;23.480;2022-11-20T23:15:47;6.22;;;3.75;;
29478;SDS011;16437;41.836;23.480;2022-11-20T23:21:14;5.53;;;3.47;;
29478;SDS011;16437;41.836;23.480;2022-11-20T23:26:42;5.90;;;3.92;;
29478;SDS011;16437;41.836;23.480;2022-11-20T23:32:10;6.33;;;3.70;;
29478;SDS011;16437;41.836;23.480;2022-11-20T23:37:36;6.05;;;3.50;;
29478;SDS011;16437;41.836;23.480;2022-11-20T23:43:02;6.67;;;4.00;;
29478;SDS011;16437;41.836;23.480;2022-11-20T23:48:42;9.23;;;4.03;;
29478;SDS011;16437;41.836;23.480;2022-11-20T23:54:09;8.98;;;4.22;;
29478;SDS011;16437;41.836;23.480;2022-11-20T23:59:35;5.62;;;3.75;;
